Time;durP1;ratioP1;P1;durP2;ratioP2;P2;SDS_P1;SDS_P2;PMS_P1;PMS_P2;Temp;Humidity;BMP_temperature;BMP_pressure;BME280_temperature;BME280_humidity;BME280_pressure;Samples;Min_cycle;Max_cycle;Signal;HPM_P1;HPM_P2
2023/01/06 00:00:38;;;;;;;6.32;1.25;;;;;;;5.54;67.44;101900.69;4968216;28;20088;-53
2023/01/06 00:03:04;;;;;;;5.43;1.02;;;;;;;5.50;67.59;101899.88;4965763;28;20129;-54
2023/01/06 00:05:30;;;;;;;5.40;1.67;;;;;;;5.52;67.54;101899.88;4966262;28;20549;-59
2023/01/06 00:07:56;;;;;;;6.00;1.27;;;;;;;5.54;67.69;101898.06;4966782;28;20076;-59
2023/01/06 00:10:21;;;;;;;4.28;1.52;;;;;;;5.51;67.26;101898.16;4971523;28;20083;-57
2023/01/06 00:12:48;;;;;;;2.55;1.27;;;;;;;5.52;67.43;101887.66;4969414;28;20101;-53
2023/01/06 00:15:14;;;;;;;5.25;1.42;;;;;;;5.53;67.38;101893.72;4966125;28;20087;-56
2023/01/06 00:17:40;;;;;;;5.75;1.55;;;;;;;5.54;67.13;101898.94;4964397;28;20474;-56
2023/01/06 00:20:06;;;;;;;5.97;1.30;;;;;;;5.56;67.17;101898.91;4968720;28;20079;-55
2023/01/06 00:22:32;;;;;;;5.30;1.80;;;;;;;5.55;66.93;101900.66;4968986;28;20099;-56
2023/01/06 00:24:57;;;;;;;3.42;1.25;;;;;;;5.56;67.15;101901.50;4972553;28;20075;-58
2023/01/06 00:27:23;;;;;;;5.22;1.65;;;;;;;5.54;67.06;101906.78;4974045;28;20083;-55
2023/01/06 00:29:49;;;;;;;3.72;1.15;;;;;;;5.52;67.34;101900.72;4974796;28;20162;-55
2023/01/06 00:32:16;;;;;;;4.88;1.40;;;;;;;5.51;67.05;101901.59;4970880;28;20186;-55
2023/01/06 00:34:42;;;;;;;3.08;1.10;;;;;;;5.54;67.06;101903.28;4974545;28;20166;-55
2023/01/06 00:37:07;;;;;;;5.43;1.65;;;;;;;5.56;67.18;101909.34;4973336;28;20214;-58
2023/01/06 00:39:33;;;;;;;4.82;1.55;;;;;;;5.56;67.14;101901.50;4972276;28;20087;-57
2023/01/06 00:42:05;;;;;;;4.32;1.30;;;;;;;5.54;66.93;101905.91;4972315;28;20094;-55
2023/01/06 00:44:32;;;;;;;4.35;1.45;;;;;;;5.54;67.13;101909.38;4974465;28;20083;-59
2023/01/06 00:46:58;;;;;;;3.75;1.30;;;;;;;5.51;67.52;101908.59;4971792;28;20162;-59
2023/01/06 00:49:23;;;;;;;3.42;1.42;;;;;;;5.49;67.37;101909.47;4965039;28;20080;-56
2023/01/06 00:51:49;;;;;;;3.15;1.02;;;;;;;5.53;67.22;101909.41;4969794;28;20093;-57
2023/01/06 00:54:15;;;;;;;3.25;1.20;;;;;;;5.54;67.22;101914.59;4971427;28;20091;-54
2023/01/06 00:56:45;;;;;;;3.40;1.30;;;;;;;5.50;66.95;101920.75;4972643;28;20095;-58
2023/01/06 00:59:12;;;;;;;4.95;1.30;;;;;;;5.52;66.71;101911.16;4967134;28;20494;-58
2023/01/06 01:01:38;;;;;;;2.60;1.08;;;;;;;5.54;67.09;101906.78;4970336;28;20086;-56
2023/01/06 01:04:05;;;;;;;2.97;1.27;;;;;;;5.53;67.10;101906.78;4971661;28;20559;-56
2023/01/06 01:06:30;;;;;;;3.38;2.08;;;;;;;5.52;67.22;101902.47;4974770;28;20706;-56
2023/01/06 01:08:58;;;;;;;4.63;2.03;;;;;;;5.48;67.08;101902.53;4971955;28;20166;-58
2023/01/06 01:14:09;;;;;;;2.92;1.65;;;;;;;5.44;67.49;101903.47;4973087;28;20127;-54
2023/01/06 01:16:35;;;;;;;5.00;1.75;;;;;;;5.39;67.41;101905.28;4969880;28;20462;-58
2023/01/06 01:19:01;;;;;;;3.63;1.58;;;;;;;5.37;67.87;101909.66;4969630;28;20079;-52
2023/01/06 01:21:26;;;;;;;3.90;1.48;;;;;;;5.33;67.85;101914.09;4972010;28;20094;-55
2023/01/06 01:23:51;;;;;;;3.47;1.40;;;;;;;5.28;68.08;101912.44;4972820;28;20567;-55
2023/01/06 01:26:17;;;;;;;3.42;1.17;;;;;;;5.22;67.89;101913.41;4971995;28;20245;-58
2023/01/06 01:28:43;;;;;;;4.93;1.23;;;;;;;5.14;68.31;101910.94;4972101;28;20086;-58
2023/01/06 01:31:09;;;;;;;6.22;1.45;;;;;;;5.08;68.39;101907.56;4970974;28;20083;-55
2023/01/06 01:33:34;;;;;;;3.78;1.25;;;;;;;5.02;68.71;101898.94;4965999;28;20102;-55
2023/01/06 01:36:08;;;;;;;3.05;1.20;;;;;;;4.98;68.52;101901.63;4965556;28;20610;-54
2023/01/06 01:38:34;;;;;;;4.00;1.48;;;;;;;4.94;68.93;101895.59;4969827;28;20102;-53
2023/01/06 01:41:01;;;;;;;3.47;1.35;;;;;;;4.84;68.82;101894.03;4970024;28;20578;-53
2023/01/06 01:43:51;;;;;;;7.78;1.70;;;;;;;4.72;69.38;101900.28;4970407;28;20146;-58
2023/01/06 01:46:26;;;;;;;3.13;0.85;;;;;;;4.61;69.12;101903.03;4972363;28;20091;-58
2023/01/06 01:48:55;;;;;;;5.65;1.27;;;;;;;4.54;69.48;101899.66;4973489;28;20091;-55
2023/01/06 01:51:27;;;;;;;3.92;1.20;;;;;;;4.49;69.54;101898.84;4963284;28;20171;-54
2023/01/06 01:53:57;;;;;;;3.08;1.02;;;;;;;4.44;69.68;101903.28;4963137;28;20137;-56
2023/01/06 01:56:27;;;;;;;5.00;1.40;;;;;;;4.40;69.69;101898.97;4971978;28;20087;-60
2023/01/06 01:58:59;;;;;;;7.03;1.58;;;;;;;4.36;69.69;101884.25;4971704;28;20133;-55
2023/01/06 02:01:25;;;;;;;4.18;1.48;;;;;;;4.28;69.99;101881.75;4972041;28;20170;-55
2023/01/06 02:03:51;;;;;;;3.50;1.30;;;;;;;4.26;69.96;101878.28;4969151;28;20174;-55
2023/01/06 02:06:20;;;;;;;3.65;1.50;;;;;;;4.25;70.00;101869.63;4972582;28;20446;-55
2023/01/06 02:08:57;;;;;;;9.38;1.80;;;;;;;4.21;69.89;101873.16;4973504;28;20158;-55
2023/01/06 02:11:26;;;;;;;3.40;1.75;;;;;;;4.20;70.24;101871.44;4962784;28;20159;-52
2023/01/06 02:14:00;;;;;;;2.38;1.40;;;;;;;4.13;69.92;101885.44;4969168;28;20547;-53
2023/01/06 02:16:30;;;;;;;7.30;1.63;;;;;;;4.08;70.27;101893.28;4970841;28;20094;-60
2023/01/06 02:19:17;;;;;;;3.92;1.77;;;;;;;4.06;70.45;101886.38;4970537;28;20162;-54
2023/01/06 02:22:04;;;;;;;4.10;1.70;;;;;;;4.03;70.29;101882.06;4967242;28;20095;-57
2023/01/06 02:24:38;;;;;;;3.65;1.33;;;;;;;4.00;70.27;101876.03;4968877;28;20082;-54
2023/01/06 02:27:06;;;;;;;3.03;1.50;;;;;;;3.99;70.43;101879.53;4968404;28;20123;-57
2023/01/06 02:29:34;;;;;;;4.25;2.28;;;;;;;3.99;70.37;101882.97;4968995;28;20622;-56
2023/01/06 02:32:16;;;;;;;9.32;1.40;;;;;;;4.02;70.35;101877.75;4969672;28;20098;-59
2023/01/06 02:34:54;;;;;;;5.25;1.98;;;;;;;4.05;70.55;101869.00;4970182;28;20082;-54
2023/01/06 02:37:54;;;;;;;3.58;1.58;;;;;;;4.12;70.19;101865.47;4971717;28;20090;-56
2023/01/06 02:40:45;;;;;;;7.18;1.30;;;;;;;4.22;69.90;101861.84;4965872;28;20118;-52
2023/01/06 02:43:17;;;;;;;3.80;1.83;;;;;;;4.26;69.84;101867.88;4965160;28;20095;-53
2023/01/06 02:46:01;;;;;;;5.57;1.77;;;;;;;4.34;69.76;101862.56;4968836;28;20086;-55
2023/01/06 02:48:40;;;;;;;6.97;2.20;;;;;;;4.41;69.82;101853.78;4969201;28;20079;-52
2023/01/06 02:51:10;;;;;;;7.65;2.65;;;;;;;4.47;69.61;101863.25;4970706;28;20094;-57
2023/01/06 02:53:56;;;;;;;7.32;2.17;;;;;;;4.50;69.59;101858.84;4960692;28;20095;-57
2023/01/06 02:56:28;;;;;;;5.50;2.30;;;;;;;4.51;69.41;101864.94;4961670;28;20087;-52
2023/01/06 02:58:56;;;;;;;;;;;;;;;4.47;69.81;101869.31;4969330;28;20075;-53
2023/01/06 03:01:33;;;;;;;3.90;2.00;;;;;;;4.51;69.58;101860.59;4967633;28;19965;-55
2023/01/06 03:04:03;;;;;;;6.78;2.30;;;;;;;4.52;69.84;101867.53;4967571;28;20104;-53
2023/01/06 03:06:31;;;;;;;5.07;2.15;;;;;;;4.52;69.54;101857.09;4969505;28;20685;-56
2023/01/06 03:08:59;;;;;;;6.40;1.95;;;;;;;4.57;69.62;101850.09;4959718;28;20162;-52
2023/01/06 03:11:28;;;;;;;9.15;2.67;;;;;;;4.62;69.70;101846.53;4959636;28;20110;-52
2023/01/06 03:14:11;;;;;;;4.00;2.13;;;;;;;4.63;69.46;101843.03;4962783;28;20099;-54
2023/01/06 03:16:36;;;;;;;3.10;1.35;;;;;;;4.61;69.48;101844.81;4959345;28;20627;-56
2023/01/06 03:19:02;;;;;;;4.57;1.95;;;;;;;4.62;69.71;101847.41;4953305;28;20113;-59
2023/01/06 03:21:34;;;;;;;4.05;2.15;;;;;;;4.63;69.72;101853.47;4956968;28;20079;-56
2023/01/06 03:24:00;;;;;;;3.95;2.10;;;;;;;4.61;69.73;101845.69;4954724;28;20099;-55
2023/01/06 03:26:26;;;;;;;4.45;2.00;;;;;;;4.62;69.93;101843.91;4956426;28;20094;-54
2023/01/06 03:28:52;;;;;;;5.63;2.28;;;;;;;4.61;69.62;101840.47;4960966;28;20091;-52
2023/01/06 03:31:28;;;;;;;5.15;2.03;;;;;;;4.60;70.00;101840.50;4959360;28;20133;-54
2023/01/06 03:34:04;;;;;;;3.38;1.88;;;;;;;4.61;69.86;101852.66;4954765;28;20165;-54
2023/01/06 03:36:39;;;;;;;5.10;2.00;;;;;;;4.62;69.71;101843.91;4964654;28;20453;-56
2023/01/06 03:39:36;;;;;;;3.95;1.70;;;;;;;4.57;69.88;101829.22;4955592;28;20137;-58
2023/01/06 03:45:34;;;;;;;6.28;3.30;;;;;;;4.58;69.77;101828.34;4960083;28;20086;-57
2023/01/06 03:48:37;;;;;;;4.00;2.15;;;;;;;4.62;69.91;101820.44;4964325;28;20581;-56
2023/01/06 03:51:28;;;;;;;6.05;2.38;;;;;;;4.65;69.91;101823.00;4964406;28;20077;-53
2023/01/06 03:54:00;;;;;;;4.30;2.15;;;;;;;4.67;69.40;101827.34;4961854;28;20118;-56
2023/01/06 03:56:34;;;;;;;5.50;2.10;;;;;;;4.69;69.68;101833.38;4965362;28;20084;-57
2023/01/06 03:59:04;;;;;;;5.68;1.98;;;;;;;4.71;69.45;101822.94;4968198;28;20082;-55
2023/01/06 04:01:30;;;;;;;4.22;1.50;;;;;;;4.72;69.46;101822.91;4975061;28;20178;-52
2023/01/06 04:03:56;;;;;;;4.32;1.77;;;;;;;4.75;69.52;101824.63;4973542;28;20086;-55
2023/01/06 04:06:22;;;;;;;2.53;1.67;;;;;;;4.77;69.24;101825.44;4976100;28;20145;-62
2023/01/06 04:08:48;;;;;;;3.85;1.50;;;;;;;4.79;69.10;101825.41;4973269;28;20102;-54
2023/01/06 04:13:57;;;;;;;4.78;2.60;;;;;;;4.83;69.18;101801.88;4971402;28;20094;-56
2023/01/06 04:16:23;;;;;;;5.97;2.75;;;;;;;4.83;68.91;101794.03;4973598;28;20099;-55
2023/01/06 04:18:48;;;;;;;10.13;4.50;;;;;;;4.82;69.12;101796.69;4973915;28;20162;-58
2023/01/06 04:21:14;;;;;;;8.98;3.10;;;;;;;4.79;68.96;101792.38;4972490;28;20087;-56
2023/01/06 04:23:39;;;;;;;7.90;2.75;;;;;;;4.82;68.84;101794.09;4975108;28;20650;-54
2023/01/06 04:26:04;;;;;;;7.03;3.33;;;;;;;4.83;68.80;101786.22;4971512;28;20078;-56
2023/01/06 04:28:30;;;;;;;11.20;3.70;;;;;;;4.84;68.70;101784.50;4968320;28;20149;-55
2023/01/06 04:31:00;;;;;;;4.45;1.75;;;;;;;4.84;68.70;101790.56;4972796;28;21243;-53
2023/01/06 04:33:26;;;;;;;3.10;1.58;;;;;;;4.87;68.50;101795.72;4969830;28;20111;-59
2023/01/06 04:35:52;;;;;;;3.17;1.63;;;;;;;4.87;68.61;101800.94;4970988;28;20617;-54
2023/01/06 04:38:18;;;;;;;2.65;1.35;;;;;;;4.85;68.94;101792.28;4972589;28;20087;-54
2023/01/06 04:40:43;;;;;;;4.55;2.60;;;;;;;4.84;68.46;101793.16;4972285;28;20082;-54
2023/01/06 04:43:14;;;;;;;7.03;3.38;;;;;;;4.84;68.48;101795.75;4972424;28;20587;-55
2023/01/06 04:45:41;;;;;;;6.85;2.80;;;;;;;4.85;68.78;101792.28;4967001;28;20083;-53
2023/01/06 04:48:08;;;;;;;4.53;1.70;;;;;;;4.81;68.73;101785.38;4970933;28;20071;-56
2023/01/06 04:50:34;;;;;;;3.70;1.75;;;;;;;4.79;68.86;101787.16;4974376;28;20094;-52
2023/01/06 04:52:59;;;;;;;2.00;0.93;;;;;;;4.77;68.99;101783.69;4972303;28;20482;-56
2023/01/06 04:55:25;;;;;;;6.05;2.00;;;;;;;4.79;68.96;101792.38;4973414;28;20085;-55
2023/01/06 04:57:51;;;;;;;4.45;1.80;;;;;;;4.79;68.81;101783.69;4967761;28;20553;-54
2023/01/06 05:00:17;;;;;;;5.70;1.90;;;;;;;4.79;68.70;101775.88;4972488;28;20086;-53
2023/01/06 05:02:43;;;;;;;4.13;2.00;;;;;;;4.82;68.75;101781.03;4966549;28;20091;-52
2023/01/06 05:05:09;;;;;;;2.78;1.88;;;;;;;4.85;68.76;101770.53;4973287;28;20133;-59
2023/01/06 05:07:35;;;;;;;6.32;2.33;;;;;;;4.88;68.80;101771.38;4972212;28;20072;-59
2023/01/06 05:10:00;;;;;;;8.57;3.42;;;;;;;4.95;68.61;101769.50;4972177;28;20539;-56
2023/01/06 05:12:26;;;;;;;4.50;2.70;;;;;;;4.97;68.55;101764.25;4973844;28;20095;-57
2023/01/06 05:14:52;;;;;;;4.72;2.55;;;;;;;4.97;68.65;101766.84;4975088;28;20098;-58
2023/01/06 05:17:17;;;;;;;5.75;3.67;;;;;;;4.97;68.56;101753.81;4970204;28;20095;-57
2023/01/06 05:19:44;;;;;;;8.38;3.90;;;;;;;4.94;68.31;101753.88;4970670;28;20098;-54
2023/01/06 05:22:10;;;;;;;7.93;3.30;;;;;;;4.96;68.67;101752.09;4971689;28;20075;-56
2023/01/06 05:24:36;;;;;;;4.35;2.67;;;;;;;4.96;68.18;101757.31;4970059;28;20547;-52
2023/01/06 05:27:02;;;;;;;4.72;2.38;;;;;;;4.97;68.41;101759.03;4967319;28;20086;-55
2023/01/06 05:29:28;;;;;;;5.22;2.25;;;;;;;4.98;68.11;101752.94;4965747;28;20557;-54
2023/01/06 05:31:54;;;;;;;4.95;2.28;;;;;;;4.98;68.07;101751.19;4958880;28;20083;-51
2023/01/06 05:34:19;;;;;;;6.00;3.33;;;;;;;4.97;68.13;101743.38;4970482;28;20098;-58
2023/01/06 05:36:45;;;;;;;5.45;2.30;;;;;;;5.00;68.22;101743.34;4962003;28;20160;-57
2023/01/06 05:39:10;;;;;;;9.38;3.88;;;;;;;4.98;68.33;101742.50;4953074;28;20090;-58
2023/01/06 05:41:36;;;;;;;9.52;4.18;;;;;;;4.97;68.56;101735.56;4968349;28;20158;-54
2023/01/06 05:44:02;;;;;;;7.22;3.95;;;;;;;4.96;68.91;101731.22;4961020;28;20091;-54
2023/01/06 05:46:27;;;;;;;5.28;3.03;;;;;;;4.95;69.12;101732.13;4964925;28;20087;-53
2023/01/06 05:48:53;;;;;;;7.50;4.10;;;;;;;4.92;69.44;101724.34;4963570;28;20545;-53
2023/01/06 05:51:18;;;;;;;7.18;3.60;;;;;;;4.92;69.50;101726.94;4960985;28;20173;-54
2023/01/06 05:53:46;;;;;;;16.00;5.90;;;;;;;4.91;69.53;101720.03;4961751;28;20099;-55
2023/01/06 05:56:15;;;;;;;6.60;3.00;;;;;;;4.93;69.47;101710.41;4956828;28;20170;-55
2023/01/06 05:58:44;;;;;;;5.10;2.97;;;;;;;4.94;69.45;101717.34;4965573;28;20146;-56
2023/01/06 06:01:20;;;;;;;2.70;1.85;;;;;;;4.90;69.73;101715.72;4961498;28;20092;-58
2023/01/06 06:03:45;;;;;;;7.18;3.53;;;;;;;4.88;69.68;101711.38;4964773;28;20095;-56
2023/01/06 06:06:11;;;;;;;5.00;2.85;;;;;;;4.87;69.62;101701.84;4969170;28;20122;-59
2023/01/06 06:08:36;;;;;;;3.25;2.05;;;;;;;4.88;69.97;101708.78;4971452;28;20623;-56
2023/01/06 06:11:03;;;;;;;6.43;2.97;;;;;;;4.87;70.19;101720.09;4967906;28;20090;-55
2023/01/06 06:13:29;;;;;;;5.60;3.97;;;;;;;4.85;69.76;101724.47;4969926;28;20103;-58
2023/01/06 06:16:12;;;;;;;4.68;2.85;;;;;;;4.83;69.68;101721.03;4970730;28;20110;-56
2023/01/06 06:18:41;;;;;;;3.78;1.48;;;;;;;4.82;70.10;101706.25;4962220;28;20087;-58
2023/01/06 06:21:19;;;;;;;5.22;1.83;;;;;;;4.82;69.94;101701.03;4965451;28;20089;-58
2023/01/06 06:23:44;;;;;;;4.38;2.35;;;;;;;4.84;70.06;101691.44;4972181;28;20099;-58
2023/01/06 06:26:10;;;;;;;7.30;2.70;;;;;;;4.88;69.73;101676.59;4970745;28;20088;-53
2023/01/06 06:28:37;;;;;;;7.25;2.40;;;;;;;4.88;69.68;101661.81;4966633;28;20109;-56
2023/01/06 06:31:12;;;;;;;10.70;5.25;;;;;;;4.87;69.73;101665.31;4967170;28;20110;-56
2023/01/06 06:33:39;;;;;;;3.97;2.20;;;;;;;4.90;69.75;101666.16;4972566;28;20097;-54
2023/01/06 06:36:06;;;;;;;3.33;1.83;;;;;;;4.90;69.70;101658.31;4971749;28;20109;-53
2023/01/06 06:38:31;;;;;;;2.70;1.60;;;;;;;4.92;69.81;101651.31;4969753;28;20166;-52
2023/01/06 06:40:57;;;;;;;2.95;1.60;;;;;;;4.92;69.67;101661.75;4968659;28;20169;-54
2023/01/06 06:43:23;;;;;;;4.38;2.60;;;;;;;4.94;69.64;101670.41;4974173;28;20095;-53
2023/01/06 06:45:48;;;;;;;6.45;2.85;;;;;;;4.93;69.50;101655.63;4972680;28;20095;-56
2023/01/06 06:48:15;;;;;;;3.28;1.67;;;;;;;4.89;69.66;101652.22;4978805;28;20087;-57
2023/01/06 06:50:40;;;;;;;5.40;1.58;;;;;;;4.90;69.79;101646.13;4972037;28;20122;-54
2023/01/06 06:53:06;;;;;;;7.47;2.22;;;;;;;4.90;69.82;101643.53;4971442;28;20127;-55
2023/01/06 06:55:33;;;;;;;5.70;2.83;;;;;;;4.91;69.60;101639.19;4967729;28;20086;-55
2023/01/06 06:57:58;;;;;;;3.72;1.95;;;;;;;4.91;69.87;101639.19;4966908;28;20087;-56
2023/01/06 07:00:25;;;;;;;2.40;1.40;;;;;;;4.92;69.64;101646.09;4965369;28;20094;-56
2023/01/06 07:02:50;;;;;;;3.88;1.60;;;;;;;4.96;69.66;101645.16;4972745;28;20101;-54
2023/01/06 07:05:17;;;;;;;5.15;1.85;;;;;;;4.95;69.76;101652.13;4970831;28;20079;-52
2023/01/06 07:07:43;;;;;;;5.93;1.63;;;;;;;4.95;69.77;101652.13;4969029;28;20114;-54
2023/01/06 07:10:34;;;;;;;2.85;1.60;;;;;;;4.91;69.68;101652.22;4973026;28;20076;-58
2023/01/06 07:12:59;;;;;;;3.95;1.77;;;;;;;4.92;69.72;101640.88;4969532;28;20111;-56
2023/01/06 07:15:25;;;;;;;5.57;1.90;;;;;;;4.95;70.09;101635.59;4971291;28;20083;-54
2023/01/06 07:17:50;;;;;;;1.95;1.13;;;;;;;4.96;70.01;101648.63;4973037;28;20142;-53
2023/01/06 07:20:16;;;;;;;3.58;1.52;;;;;;;4.96;69.82;101659.06;4968388;28;20130;-54
2023/01/06 07:22:41;;;;;;;4.43;2.10;;;;;;;5.01;69.64;101656.38;4966014;28;20162;-56
2023/01/06 07:25:08;;;;;;;5.75;1.75;;;;;;;5.02;69.54;101663.31;4970876;28;20578;-53
2023/01/06 07:27:34;;;;;;;4.57;1.50;;;;;;;5.03;69.60;101660.66;4968640;28;20083;-53
2023/01/06 07:30:00;;;;;;;10.80;1.90;;;;;;;5.08;69.45;101660.56;4970150;28;20067;-55
2023/01/06 07:32:25;;;;;;;7.30;1.58;;;;;;;5.07;69.61;101645.78;4972536;28;20190;-57
2023/01/06 07:34:51;;;;;;;5.72;2.40;;;;;;;5.07;69.65;101639.72;4971805;28;20442;-54
2023/01/06 07:37:16;;;;;;;5.18;2.03;;;;;;;5.08;69.39;101620.56;4970386;28;20150;-54
2023/01/06 07:39:41;;;;;;;5.13;2.38;;;;;;;5.10;69.41;101621.41;4969003;28;20682;-54
2023/01/06 07:42:08;;;;;;;5.18;2.40;;;;;;;5.07;69.60;101619.69;4965705;28;20535;-58
2023/01/06 07:44:34;;;;;;;3.35;1.77;;;;;;;5.07;69.51;101619.69;4968058;28;20088;-52
2023/01/06 07:46:59;;;;;;;2.88;1.50;;;;;;;5.08;69.29;101605.75;4974739;28;20423;-53
2023/01/06 07:49:25;;;;;;;5.45;1.85;;;;;;;5.08;69.70;101600.53;4964896;28;20083;-57
2023/01/06 07:51:50;;;;;;;2.72;1.52;;;;;;;5.08;70.01;101594.47;4970071;28;20087;-53
2023/01/06 07:54:16;;;;;;;5.55;2.28;;;;;;;5.09;69.99;101585.78;4971006;28;20462;-58
2023/01/06 07:56:42;;;;;;;13.60;4.78;;;;;;;5.09;69.97;101596.22;4964186;28;20095;-56
2023/01/06 07:59:08;;;;;;;15.57;4.43;;;;;;;5.05;70.02;101592.81;4967063;28;20455;-52
2023/01/06 08:01:34;;;;;;;7.35;3.45;;;;;;;5.06;70.13;101591.91;4970487;28;20557;-53
2023/01/06 08:03:59;;;;;;;6.22;1.92;;;;;;;5.05;70.52;101590.19;4968099;28;20099;-57
2023/01/06 08:06:24;;;;;;;3.90;1.80;;;;;;;5.05;70.35;101598.03;4970181;28;20079;-54
2023/01/06 08:08:50;;;;;;;3.85;1.90;;;;;;;5.06;70.74;101604.09;4970491;28;20091;-52
2023/01/06 08:11:15;;;;;;;4.60;2.20;;;;;;;5.00;70.92;101602.47;4961312;28;20182;-56
2023/01/06 08:13:41;;;;;;;2.65;1.63;;;;;;;5.01;71.00;101604.19;4966937;28;20102;-53
2023/01/06 08:16:08;;;;;;;4.97;1.92;;;;;;;4.99;70.81;101593.78;4969802;28;20099;-56
2023/01/06 08:18:34;;;;;;;3.55;1.55;;;;;;;5.06;70.99;101606.69;4970831;28;20178;-55
2023/01/06 08:21:01;;;;;;;5.35;2.17;;;;;;;5.02;70.86;101593.72;4967537;28;20218;-53
2023/01/06 08:23:26;;;;;;;5.45;1.80;;;;;;;5.03;71.15;101591.97;4970909;28;20533;-55
2023/01/06 08:25:52;;;;;;;4.72;1.88;;;;;;;4.98;71.26;101583.38;4966484;28;20594;-52
2023/01/06 08:28:17;;;;;;;4.63;1.80;;;;;;;4.99;71.29;101580.72;4967747;28;20571;-52
2023/01/06 08:30:43;;;;;;;6.13;2.20;;;;;;;4.99;71.44;101575.50;4969448;28;20082;-53
2023/01/06 08:33:08;;;;;;;3.75;2.10;;;;;;;4.96;71.75;101572.13;4969835;28;20102;-54
2023/01/06 08:35:34;;;;;;;6.25;2.50;;;;;;;4.98;71.72;101562.50;4970603;28;20839;-53
2023/01/06 08:37:59;;;;;;;4.82;2.30;;;;;;;4.97;71.83;101564.28;4963722;28;20562;-53
2023/01/06 08:40:25;;;;;;;4.35;2.42;;;;;;;4.98;71.87;101558.16;4968758;28;20543;-56
2023/01/06 08:42:50;;;;;;;6.38;3.30;;;;;;;5.00;71.76;101547.69;4969045;28;20095;-52
2023/01/06 08:45:15;;;;;;;12.75;4.03;;;;;;;5.01;71.57;101536.38;4969483;28;20103;-53
2023/01/06 08:47:41;;;;;;;4.47;2.10;;;;;;;5.01;72.02;101536.38;4970271;28;20071;-54
2023/01/06 08:50:07;;;;;;;10.05;4.68;;;;;;;5.03;71.90;101545.03;4969277;28;20079;-54
2023/01/06 08:52:32;;;;;;;3.90;2.33;;;;;;;4.99;72.05;101538.16;4972511;28;20458;-52
2023/01/06 08:54:58;;;;;;;4.18;2.67;;;;;;;4.95;72.18;101537.38;4974943;28;20546;-55
2023/01/06 08:57:24;;;;;;;4.13;2.05;;;;;;;4.93;72.17;101527.84;4974296;28;20094;-56
2023/01/06 08:59:50;;;;;;;7.18;2.70;;;;;;;4.95;72.08;101526.94;4972549;28;20091;-56
2023/01/06 09:02:15;;;;;;;10.00;4.28;;;;;;;4.96;72.19;101523.44;4971701;28;20099;-56
2023/01/06 09:04:40;;;;;;;7.18;2.90;;;;;;;4.97;72.21;101519.06;4971686;28;20114;-53
2023/01/06 09:07:06;;;;;;;5.20;2.42;;;;;;;4.96;72.33;101504.31;4973416;28;20535;-56
2023/01/06 09:09:31;;;;;;;5.10;2.15;;;;;;;4.95;72.72;101495.63;4973801;28;20166;-56
2023/01/06 09:11:57;;;;;;;6.18;2.97;;;;;;;4.97;72.62;101492.97;4969332;28;20142;-59
2023/01/06 09:14:22;;;;;;;6.13;2.50;;;;;;;4.96;72.64;101481.69;4972653;28;20177;-57
2023/01/06 09:16:48;;;;;;;5.75;3.17;;;;;;;4.95;72.83;101484.31;4973551;28;20095;-54
2023/01/06 09:19:15;;;;;;;4.68;2.40;;;;;;;4.98;72.84;101487.75;4970777;28;20382;-58
2023/01/06 09:21:41;;;;;;;5.72;3.30;;;;;;;4.98;73.00;101492.97;4970384;28;20086;-56
2023/01/06 09:24:11;;;;;;;6.97;4.05;;;;;;;4.98;73.20;101495.56;4966677;28;20110;-58
2023/01/06 09:26:37;;;;;;;6.30;2.67;;;;;;;4.99;72.86;101486.81;4971726;28;20113;-57
2023/01/06 09:29:02;;;;;;;7.90;3.92;;;;;;;4.97;73.45;101483.41;4968600;28;20119;-57
2023/01/06 09:31:28;;;;;;;16.00;7.93;;;;;;;4.97;73.21;101467.78;4965789;28;20159;-52
2023/01/06 09:33:54;;;;;;;8.45;4.38;;;;;;;5.03;73.36;101469.38;4971900;28;20513;-56
2023/01/06 09:36:20;;;;;;;10.10;3.35;;;;;;;5.07;73.11;101463.19;4967156;28;20689;-57
2023/01/06 09:38:45;;;;;;;8.98;2.83;;;;;;;5.08;73.08;101457.06;4968422;28;20519;-57
2023/01/06 09:41:35;;;;;;;4.47;2.75;;;;;;;5.09;73.34;101461.38;4964755;28;20087;-55
2023/01/06 09:44:19;;;;;;;6.88;2.70;;;;;;;5.13;73.62;101465.66;4971841;28;20114;-56
2023/01/06 09:46:48;;;;;;;6.70;4.28;;;;;;;5.15;73.67;101466.47;4969022;28;20099;-55
2023/01/06 09:49:52;;;;;;;6.53;3.30;;;;;;;5.14;73.75;101456.94;4972264;28;20075;-54
2023/01/06 09:52:32;;;;;;;7.43;3.42;;;;;;;5.19;73.95;101452.47;4966428;28;20566;-54
2023/01/06 09:55:07;;;;;;;7.40;3.72;;;;;;;5.22;73.64;101441.09;4970831;28;20086;-56
2023/01/06 09:57:42;;;;;;;16.33;8.98;;;;;;;5.26;73.87;101434.91;4970460;28;20098;-58
2023/01/06 10:00:46;;;;;;;10.32;4.97;;;;;;;5.28;73.79;101440.09;4969389;28;20554;-55
2023/01/06 10:03:15;;;;;;;11.45;3.78;;;;;;;5.31;73.68;101432.19;4966088;28;20106;-55
2023/01/06 10:05:55;;;;;;;9.18;3.63;;;;;;;5.32;73.83;101426.06;4967934;28;20166;-55
2023/01/06 10:08:45;;;;;;;7.30;3.58;;;;;;;5.34;74.02;101426.91;4963917;28;20086;-56
2023/01/06 10:11:32;;;;;;;8.23;3.60;;;;;;;5.36;74.31;101432.06;4972920;28;20125;-59
2023/01/06 10:14:27;;;;;;;5.32;2.85;;;;;;;5.38;74.29;101414.63;4968525;28;20087;-58
2023/01/06 10:17:17;;;;;;;5.50;2.53;;;;;;;5.41;74.33;101411.94;4966769;28;20086;-59
2023/01/06 10:20:04;;;;;;;8.00;2.80;;;;;;;5.40;74.26;101411.06;4969332;28;20086;-60
2023/01/06 10:22:59;;;;;;;10.88;4.65;;;;;;;5.43;74.12;101405.78;4968958;28;20149;-58
2023/01/06 10:25:39;;;;;;;7.30;3.63;;;;;;;5.45;74.16;101384.84;4962872;28;20193;-56
2023/01/06 10:28:29;;;;;;;7.38;4.47;;;;;;;5.51;74.23;101378.63;4966805;28;20497;-59
2023/01/06 10:31:02;;;;;;;13.35;6.25;;;;;;;5.54;74.46;101373.31;4963655;28;20103;-54
2023/01/06 10:33:36;;;;;;;6.00;2.90;;;;;;;5.55;74.23;101370.69;4972820;28;20563;-56
2023/01/06 10:36:02;;;;;;;7.20;3.35;;;;;;;5.59;74.05;101361.00;4966328;28;20097;-57
2023/01/06 10:38:37;;;;;;;8.60;4.50;;;;;;;5.60;74.43;101367.94;4965927;28;20142;-59
2023/01/06 10:41:24;;;;;;;8.68;3.42;;;;;;;5.64;74.41;101361.75;4963756;28;20161;-55
2023/01/06 10:43:49;;;;;;;15.40;5.13;;;;;;;5.69;74.41;101361.59;4963758;28;20130;-60
2023/01/06 10:46:15;;;;;;;4.60;3.10;;;;;;;5.74;74.42;101354.50;4963380;28;20146;-56
2023/01/06 10:48:41;;;;;;;7.13;3.55;;;;;;;5.77;74.45;101357.88;4964626;28;20103;-57
2023/01/06 10:51:35;;;;;;;9.30;3.85;;;;;;;5.76;74.24;101352.69;4967412;28;20083;-57
2023/01/06 10:54:06;;;;;;;9.15;3.67;;;;;;;5.75;74.50;101341.41;4967370;28;20091;-59
2023/01/06 10:56:35;;;;;;;7.53;4.00;;;;;;;5.76;74.85;101324.84;4968748;28;20095;-56
2023/01/06 10:59:09;;;;;;;10.40;4.00;;;;;;;5.77;75.13;101321.31;4966103;28;20528;-56
2023/01/06 11:01:46;;;;;;;10.15;4.40;;;;;;;5.79;74.68;101327.38;4969774;28;20153;-54
2023/01/06 11:04:14;;;;;;;8.63;3.80;;;;;;;5.83;74.75;101332.47;4965882;28;20103;-56
2023/01/06 11:06:45;;;;;;;8.23;4.18;;;;;;;5.90;74.80;101323.59;4967797;28;20559;-58
2023/01/06 11:09:39;;;;;;;10.40;4.40;;;;;;;5.96;74.85;101331.25;4967449;28;20495;-56
2023/01/06 11:12:15;;;;;;;11.35;4.90;;;;;;;6.00;74.76;101327.66;4967468;28;20303;-55
2023/01/06 11:14:41;;;;;;;13.75;5.53;;;;;;;6.01;74.53;101326.75;4967248;28;20075;-56
2023/01/06 11:17:13;;;;;;;8.15;4.85;;;;;;;6.02;74.59;101323.25;4969086;28;20669;-56
2023/01/06 11:19:44;;;;;;;11.40;4.88;;;;;;;6.03;74.83;101322.34;4962698;28;20139;-58
2023/01/06 11:22:39;;;;;;;7.13;4.35;;;;;;;6.01;75.01;101316.31;4967697;28;20082;-52
2023/01/06 11:25:19;;;;;;;17.13;7.75;;;;;;;6.00;74.90;101298.94;4973847;28;20547;-56
2023/01/06 11:28:09;;;;;;;10.65;5.63;;;;;;;5.99;74.82;101291.97;4969262;28;20075;-55
2023/01/06 11:30:51;;;;;;;14.98;5.97;;;;;;;6.01;75.11;101289.34;4970250;28;20071;-58
2023/01/06 11:33:22;;;;;;;11.10;5.28;;;;;;;5.99;74.79;101291.97;4974015;28;20086;-57
2023/01/06 11:35:49;;;;;;;11.47;5.17;;;;;;;5.98;75.49;101295.47;4969989;28;20091;-54
2023/01/06 11:38:17;;;;;;;10.25;5.63;;;;;;;5.99;75.45;101281.50;4967534;28;20738;-55
2023/01/06 11:40:45;;;;;;;11.73;5.82;;;;;;;6.04;75.52;101278.81;4964424;28;20087;-57
2023/01/06 11:43:24;;;;;;;13.45;6.22;;;;;;;6.02;75.66;101283.22;4969214;28;20158;-57
2023/01/06 11:46:08;;;;;;;12.43;5.97;;;;;;;6.07;75.82;101276.97;4965980;28;20093;-54
2023/01/06 11:48:39;;;;;;;13.07;5.95;;;;;;;6.09;75.80;101266.44;4969116;28;20597;-54
2023/01/06 11:51:06;;;;;;;10.23;6.32;;;;;;;6.09;75.89;101266.44;4964801;28;20099;-56
2023/01/06 11:53:33;;;;;;;15.18;5.97;;;;;;;6.06;75.58;101262.19;4967148;28;20118;-54